Time;durP1;ratioP1;P1;durP2;ratioP2;P2;SDS_P1;SDS_P2;PMS_P1;PMS_P2;Temp;Humidity;BMP_temperature;BMP_pressure;BME280_temperature;BME280_humidity;BME280_pressure;Samples;Min_cycle;Max_cycle;Signal;HPM_P1;HPM_P2
2022/06/02 00:02:04;;;;;;;15.48;5.68;;;9.40;99.90;;;8.16;100.00;101090.41;4977232;28;22011;-74
2022/06/02 00:05:12;;;;;;;50.30;7.97;;;9.40;99.90;;;8.16;100.00;101089.53;4987399;28;20057;-74
2022/06/02 00:08:21;;;;;;;9.00;6.57;;;9.30;99.90;;;8.14;100.00;101088.72;4979942;28;20097;-74
2022/06/02 00:10:58;;;;;;;8.73;6.65;;;9.30;99.90;;;8.11;100.00;101097.53;4948108;28;20077;-74
2022/06/02 00:13:49;;;;;;;9.85;6.10;;;9.30;99.90;;;8.10;100.00;101094.94;4987395;28;20405;-74
2022/06/02 00:16:30;;;;;;;9.38;7.45;;;9.30;99.90;;;8.07;100.00;101087.19;4981455;28;20358;-73
2022/06/02 00:19:23;;;;;;;247.35;13.82;;;9.30;99.90;;;8.05;100.00;101091.63;4994891;28;20022;-73
2022/06/02 00:21:57;;;;;;;71.45;7.50;;;9.20;99.90;;;7.98;100.00;101085.69;4967471;28;20026;-74
2022/06/02 00:24:43;;;;;;;528.53;18.25;;;9.20;99.90;;;7.93;100.00;101091.09;4987655;28;20046;-74
2022/06/02 00:27:36;;;;;;;14.88;8.13;;;9.10;99.90;;;7.86;100.00;101086.94;4991976;28;20049;-74
2022/06/02 00:30:34;;;;;;;9.43;7.82;;;9.10;99.90;;;7.81;100.00;101099.31;4970812;28;20096;-73
2022/06/02 00:33:43;;;;;;;11.07;7.95;;;9.00;99.90;;;7.76;100.00;101101.22;5002398;28;20042;-73
2022/06/02 00:36:28;;;;;;;178.50;11.20;;;9.00;99.90;;;7.71;100.00;101103.97;5000487;28;20064;-73
2022/06/02 00:38:58;;;;;;;96.53;10.32;;;9.00;99.90;;;7.70;100.00;101111.88;4995425;28;20393;-74
2022/06/02 00:42:00;;;;;;;67.78;9.70;;;8.90;99.90;;;7.69;100.00;101116.25;4985426;28;20029;-74
2022/06/02 00:44:54;;;;;;;27.35;9.82;;;8.90;99.90;;;7.67;100.00;101115.44;4969568;28;20190;-74
2022/06/02 00:47:56;;;;;;;17.20;11.35;;;8.90;99.90;;;7.68;100.00;101126.78;4988676;28;20042;-73
2022/06/02 00:51:00;;;;;;;19.42;13.63;;;8.90;99.90;;;7.68;100.00;101129.41;4985832;28;20161;-73
2022/06/02 00:53:42;;;;;;;22.10;14.73;;;8.90;99.90;;;7.71;100.00;101130.19;4981381;28;20153;-73
2022/06/02 00:59:49;;;;;;;28.88;15.77;;;9.00;99.90;;;7.78;100.00;101133.50;4989655;28;20079;-74
2022/06/02 01:02:16;;;;;;;28.50;18.30;;;9.00;99.90;;;7.78;100.00;101131.72;4992035;28;20034;-73
2022/06/02 01:04:43;;;;;;;29.30;19.00;;;9.00;99.90;;;7.82;100.00;101132.50;4991808;28;20056;-74
2022/06/02 01:07:31;;;;;;;31.58;19.75;;;9.10;99.90;;;7.87;100.00;101138.47;4991671;28;20074;-73
2022/06/02 01:10:48;;;;;;;28.55;18.48;;;9.10;99.90;;;7.93;100.00;101138.28;4989238;28;20036;-74
2022/06/02 01:13:58;;;;;;;35.90;21.42;;;9.10;99.90;;;7.94;100.00;101140.00;4974519;28;20112;-74
2022/06/02 01:17:00;;;;;;;33.35;21.15;;;9.10;99.90;;;7.97;100.00;101144.31;4982599;28;20045;-75
2022/06/02 01:20:03;;;;;;;35.20;21.58;;;9.20;99.90;;;7.98;100.00;101141.63;4986766;28;20256;-75
2022/06/02 01:23:00;;;;;;;36.20;21.70;;;9.20;99.90;;;7.98;100.00;101143.41;4997434;28;20031;-75
2022/06/02 01:26:06;;;;;;;36.08;21.05;;;9.10;99.90;;;7.96;100.00;101146.06;4982652;28;20037;-75
2022/06/02 01:29:10;;;;;;;35.00;21.50;;;9.20;99.90;;;7.93;100.00;101138.28;4997240;28;20486;-75
2022/06/02 01:32:16;;;;;;;35.65;21.33;;;9.10;99.90;;;7.89;100.00;101148.91;4977251;28;20502;-75
2022/06/02 01:35:03;;;;;;;40.35;21.17;;;9.10;99.90;;;7.85;100.00;101139.41;4970414;28;20038;-75
2022/06/02 01:37:49;;;;;;;38.60;22.45;;;9.00;99.90;;;7.80;100.00;101137.78;4991886;28;20034;-75
2022/06/02 01:41:05;;;;;;;32.92;20.88;;;9.00;99.90;;;7.76;100.00;101143.16;4990525;28;20041;-75
2022/06/02 01:44:15;;;;;;;34.15;21.45;;;9.00;99.90;;;7.71;100.00;101143.28;4970122;28;20121;-75
2022/06/02 01:46:59;;;;;;;33.97;21.42;;;8.90;99.90;;;7.65;100.00;101140.84;4986245;28;20034;-75
2022/06/02 01:50:01;;;;;;;31.38;21.60;;;8.90;99.90;;;7.57;100.00;101141.03;4982751;28;20516;-75
2022/06/02 01:52:43;;;;;;;36.83;20.60;;;8.80;99.90;;;7.54;100.00;101138.50;4996077;28;20033;-75
2022/06/02 01:55:49;;;;;;;35.60;21.00;;;8.80;99.90;;;7.52;100.00;101144.69;4990591;28;20748;-75
2022/06/02 01:58:42;;;;;;;31.38;20.83;;;8.80;99.90;;;7.51;100.00;101142.97;4998596;28;20101;-75
2022/06/02 02:01:32;;;;;;;35.17;20.83;;;8.80;99.90;;;7.50;100.00;101149.97;4992516;28;20034;-75
2022/06/02 02:04:23;;;;;;;36.20;20.90;;;8.70;99.90;;;7.46;100.00;101156.19;4979837;28;20041;-75
2022/06/02 02:07:29;;;;;;;31.00;20.67;;;8.70;99.90;;;7.39;100.00;101155.50;4980198;28;20087;-75
2022/06/02 02:10:18;;;;;;;36.35;21.30;;;8.60;99.90;;;7.35;100.00;101155.63;4990766;28;20447;-75
2022/06/02 02:13:28;;;;;;;39.03;21.85;;;8.60;99.90;;;7.32;100.00;101150.44;4989248;28;20568;-75
2022/06/02 02:16:57;;;;;;;29.42;19.05;;;8.50;99.90;;;7.26;100.00;101163.75;4988150;28;20041;-74
2022/06/02 02:19:44;;;;;;;34.90;22.35;;;8.50;99.90;;;7.21;100.00;101160.34;4995111;28;20034;-74
2022/06/02 02:22:41;;;;;;;39.97;22.20;;;8.40;99.90;;;7.19;100.00;101160.38;4994097;28;20038;-74
2022/06/02 02:25:21;;;;;;;34.33;22.58;;;8.40;99.90;;;7.16;100.00;101158.72;5000231;28;20046;-74
2022/06/02 02:28:14;;;;;;;42.00;25.92;;;8.40;99.90;;;7.19;100.00;101168.25;4983077;28;20037;-74
2022/06/02 02:30:51;;;;;;;43.33;26.02;;;8.50;99.90;;;7.21;100.00;101176.91;4991681;28;20100;-74
2022/06/02 02:33:54;;;;;;;47.85;27.88;;;8.50;99.90;;;7.25;100.00;101172.47;4992768;28;20065;-74
2022/06/02 02:36:55;;;;;;;50.55;27.88;;;8.50;99.90;;;7.25;100.00;101175.09;4981469;28;20053;-74
2022/06/02 02:39:48;;;;;;;53.28;26.63;;;8.50;99.90;;;7.22;100.00;101175.19;4994922;28;20060;-73
2022/06/02 02:42:40;;;;;;;52.63;27.23;;;8.50;99.90;;;7.23;100.00;101174.28;4980243;28;20051;-73
2022/06/02 02:45:44;;;;;;;32.05;21.77;;;8.50;99.90;;;7.21;100.00;101176.91;4979709;28;20038;-74
2022/06/02 02:48:51;;;;;;;41.83;25.38;;;8.40;99.90;;;7.20;100.00;101172.59;4967994;28;20509;-74
2022/06/02 02:52:05;;;;;;;181.80;23.75;;;8.40;99.90;;;7.12;100.00;101177.16;4987710;28;20482;-74
2022/06/02 02:54:43;;;;;;;32.28;18.95;;;8.40;99.90;;;7.05;100.00;101171.22;4986453;28;20053;-74
2022/06/02 02:57:48;;;;;;;305.58;24.40;;;8.30;99.90;;;7.01;100.00;101173.97;4987488;28;20538;-73
2022/06/02 03:00:25;;;;;;;24.65;15.75;;;8.20;99.90;;;6.96;100.00;101180.16;4962643;28;20034;-74
2022/06/02 03:03:37;;;;;;;395.20;26.27;;;8.20;99.90;;;6.96;100.00;101180.16;4995598;28;20368;-74
2022/06/02 03:06:27;;;;;;;554.97;31.55;;;8.20;99.90;;;6.98;100.00;101175.75;4992228;28;20092;-74
2022/06/02 03:09:18;;;;;;;36.15;22.10;;;8.20;99.90;;;7.06;100.00;101182.56;4986173;28;20038;-74
2022/06/02 03:11:53;;;;;;;42.90;26.70;;;8.30;99.90;;;7.16;100.00;101187.53;4989103;28;20030;-74
2022/06/02 03:14:58;;;;;;;35.13;23.20;;;8.40;99.90;;;7.32;100.00;101194.97;4981983;28;20040;-74
2022/06/02 03:18:03;;;;;;;40.55;24.73;;;8.50;99.90;;;7.47;100.00;101193.72;4988486;28;20434;-74
2022/06/02 03:20:55;;;;;;;59.85;31.73;;;8.70;99.90;;;7.65;100.00;101197.66;4984612;28;20033;-73
2022/06/02 03:24:03;;;;;;;61.53;34.28;;;8.80;99.90;;;7.82;100.00;101187.56;4991386;28;20038;-74
2022/06/02 03:27:07;;;;;;;59.38;30.90;;;9.00;99.90;;;7.94;100.00;101195.06;4996783;28;20037;-73
2022/06/02 03:30:14;;;;;;;50.95;30.52;;;9.10;99.90;;;8.11;100.00;101201.59;4977359;28;20389;-74
2022/06/02 03:33:41;;;;;;;54.00;31.50;;;9.20;99.90;;;8.25;100.00;101204.69;4977331;28;20038;-74
2022/06/02 03:36:30;;;;;;;55.20;31.55;;;9.40;99.90;;;8.40;100.00;101204.28;4968373;28;20038;-74
2022/06/02 03:39:22;;;;;;;70.57;35.28;;;9.50;99.90;;;8.55;100.00;101213.44;4969845;28;20486;-74
2022/06/02 03:42:32;;;;;;;65.13;35.05;;;9.60;99.90;;;8.70;100.00;101214.72;4967169;28;20057;-74
2022/06/02 03:45:31;;;;;;;63.40;36.13;;;9.80;99.90;;;9.02;100.00;101218.09;4967488;28;20069;-73
2022/06/02 03:48:48;;;;;;;62.53;35.15;;;11.00;99.90;;;10.42;100.00;101226.41;4995440;28;20022;-74
2022/06/02 03:51:53;;;;;;;62.28;34.45;;;12.10;99.90;;;11.26;100.00;101230.94;4987335;28;20034;-74
2022/06/02 03:54:53;;;;;;;51.00;29.40;;;12.00;99.90;;;11.09;100.00;101236.06;4992248;28;20038;-74
2022/06/02 03:57:37;;;;;;;47.88;28.90;;;11.80;99.90;;;10.85;100.00;101240.53;4979480;28;20033;-74
2022/06/02 04:00:31;;;;;;;48.72;27.70;;;11.70;99.90;;;10.62;100.00;101244.06;4988218;28;20441;-74
2022/06/02 04:03:07;;;;;;;50.38;28.13;;;11.60;99.90;;;10.50;100.00;101252.44;4965672;28;20030;-74
2022/06/02 04:05:53;;;;;;;45.25;27.95;;;11.50;99.90;;;10.53;100.00;101257.59;4950065;28;20058;-74
2022/06/02 04:08:46;;;;;;;52.38;28.20;;;12.00;99.90;;;11.49;100.00;101259.00;4981422;28;21777;-74
2022/06/02 04:15:15;;;;;;;35.47;23.38;;;13.50;99.90;;;13.41;96.23;101274.97;4983190;28;20108;-74
2022/06/02 04:17:50;;;;;;;34.42;21.80;;;14.40;99.90;;;14.26;91.03;101284.75;4988319;28;20030;-75
2022/06/02 04:20:34;;;;;;;28.60;21.03;;;15.20;99.90;;;15.55;84.94;101294.34;4979264;28;22106;-75
2022/06/02 04:23:55;;;;;;;24.00;18.38;;;16.00;99.90;;;16.43;79.49;101299.72;4977479;28;20029;-74
2022/06/02 04:27:02;;;;;;;30.15;17.35;;;16.80;99.90;;;16.83;75.20;101305.25;4980274;28;20226;-74
2022/06/02 04:29:59;;;;;;;19.50;16.63;;;17.20;99.90;;;17.38;72.86;101312.28;4990864;28;20034;-74
2022/06/02 04:32:45;;;;;;;23.83;15.80;;;17.80;99.90;;;18.56;69.51;101324.72;4974899;28;20470;-74
2022/06/02 04:35:37;;;;;;;20.48;14.43;;;19.00;99.90;;;20.42;64.09;101329.63;4997020;28;20054;-74
2022/06/02 04:38:23;;;;;;;17.10;12.70;;;20.30;99.90;;;21.99;59.30;101332.09;4988909;28;20037;-75
2022/06/02 04:41:21;;;;;;;15.82;10.85;;;21.40;99.90;;;23.36;54.87;101345.09;5005363;28;20038;-75
2022/06/02 04:44:11;;;;;;;15.20;10.90;;;22.60;99.90;;;24.09;52.30;101350.91;4982040;28;20525;-75
2022/06/02 04:47:02;;;;;;;18.13;10.25;;;23.00;99.90;;;23.67;51.96;101358.41;4978462;28;20574;-74
2022/06/02 04:50:07;;;;;;;13.57;9.40;;;22.60;99.90;;;22.81;53.07;101364.31;4977041;28;20463;-75
2022/06/02 04:52:54;;;;;;;13.70;9.70;;;22.50;99.90;;;23.43;52.12;101367.72;4981967;28;20506;-75
2022/06/02 04:55:34;;;;;;;16.50;9.05;;;23.00;99.90;;;24.90;49.66;101388.09;4986423;28;20049;-75
2022/06/02 04:58:27;;;;;;;12.57;8.50;;;23.70;99.90;;;25.67;47.26;101401.25;4963598;28;20430;-75
2022/06/02 05:01:06;;;;;;;10.90;8.32;;;24.60;99.90;;;26.96;45.29;101401.53;4969378;28;20113;-75
2022/06/02 05:04:19;;;;;;;14.95;7.57;;;25.40;99.90;;;28.19;43.50;101421.56;4991016;28;20046;-75
2022/06/02 05:07:12;;;;;;;8.68;6.68;;;26.50;99.10;;;29.38;40.66;101432.63;4994189;28;20112;-74
2022/06/02 05:10:12;;;;;;;10.85;6.53;;;27.30;97.30;;;30.17;39.22;101437.81;4988903;28;20055;-75
2022/06/02 05:13:21;;;;;;;7.65;6.45;;;28.00;97.00;;;30.71;37.67;101445.81;4985894;28;20018;-75
2022/06/02 05:17:02;;;;;;;11.90;6.22;;;28.50;95.10;;;31.26;35.82;101458.09;4978228;28;20532;-75
2022/06/02 05:20:00;;;;;;;8.27;6.13;;;29.00;95.00;;;31.91;35.25;101471.81;4953828;28;20039;-75
2022/06/02 05:22:33;;;;;;;10.65;6.22;;;29.50;93.80;;;32.39;34.40;101474.78;4960119;28;20296;-75
2022/06/02 05:25:20;;;;;;;9.52;5.10;;;29.90;93.70;;;33.11;33.49;101483.69;4995999;28;20050;-75
2022/06/02 05:28:06;;;;;;;10.20;5.25;;;30.40;92.60;;;33.25;33.20;101490.88;4976601;28;20046;-74
2022/06/02 05:31:19;;;;;;;11.00;5.35;;;30.50;92.10;;;33.08;33.19;101501.31;4972849;28;20129;-75
2022/06/02 05:34:55;;;;;;;7.75;4.75;;;30.40;91.60;;;32.75;32.94;101513.88;4982823;28;20536;-75
2022/06/02 05:37:45;;;;;;;8.20;4.85;;;30.60;91.90;;;33.68;32.11;101520.69;4967292;28;20030;-75
2022/06/02 05:40:38;;;;;;;10.20;4.15;;;31.00;91.20;;;33.71;31.31;101531.19;4986473;28;20100;-75
2022/06/02 05:43:30;;;;;;;9.82;4.40;;;30.80;91.10;;;31.47;33.75;101524.53;4973206;28;20432;-75
2022/06/02 05:46:27;;;;;;;9.85;4.80;;;29.80;90.20;;;29.37;35.60;101515.00;4984913;28;20034;-75
2022/06/02 05:49:52;;;;;;;8.77;4.40;;;28.90;91.20;;;30.51;35.00;101537.06;4959919;28;20492;-75
2022/06/02 05:52:38;;;;;;;6.40;4.03;;;29.00;91.20;;;31.93;33.75;101545.16;4990174;28;20278;-75
2022/06/02 05:55:04;;;;;;;6.22;3.95;;;29.70;91.00;;;32.55;32.24;101552.75;4984027;28;20030;-75
2022/06/02 05:58:03;;;;;;;6.95;3.50;;;30.30;90.50;;;33.65;31.23;101569.41;4994926;28;20038;-75
2022/06/02 06:01:04;;;;;;;5.85;3.30;;;31.30;88.60;;;34.56;29.51;101581.81;4985110;28;20183;-75
2022/06/02 06:03:49;;;;;;;4.72;3.08;;;32.10;87.20;;;35.09;28.90;101582.63;4979596;28;20469;-75
2022/06/02 06:06:45;;;;;;;5.40;2.55;;;32.70;85.20;;;35.58;28.55;101585.06;4982774;28;20013;-75
2022/06/02 06:09:39;;;;;;;5.75;2.50;;;33.20;83.00;;;35.81;28.28;101579.94;4986699;28;20034;-75
2022/06/02 06:13:08;;;;;;;5.22;2.42;;;33.70;82.20;;;35.88;26.31;101586.22;4985546;28;20394;-76
2022/06/02 06:16:22;;;;;;;3.30;2.05;;;34.00;80.40;;;36.33;26.70;101588.91;4929771;28;20146;-75
2022/06/02 06:19:28;;;;;;;3.97;1.80;;;34.30;78.60;;;36.19;26.47;101594.72;4983252;28;20042;-75
2022/06/02 06:22:42;;;;;;;3.05;1.50;;;34.40;78.70;;;36.20;26.06;101601.84;5002377;28;20124;-75
2022/06/02 06:25:50;;;;;;;5.63;1.52;;;34.10;73.50;;;35.19;25.95;101609.59;4945251;28;20038;-75
2022/06/02 06:28:23;;;;;;;2.22;1.40;;;33.90;74.20;;;35.10;27.27;101608.13;4986570;28;20034;-75
2022/06/02 06:31:46;;;;;;;3.10;1.40;;;33.80;78.00;;;35.17;26.88;101608.16;4998351;28;20042;-75
2022/06/02 06:34:51;;;;;;;4.70;1.40;;;33.60;76.30;;;34.98;26.66;101610.66;4991984;28;20121;-75
2022/06/02 06:38:02;;;;;;;3.13;1.17;;;33.80;75.20;;;35.32;26.85;101608.75;4985510;28;20037;-75
2022/06/02 06:41:03;;;;;;;3.78;1.20;;;34.00;74.90;;;35.13;26.61;101621.41;4985806;28;20257;-74
2022/06/02 06:44:00;;;;;;;3.63;1.25;;;34.00;72.80;;;35.18;27.31;101618.84;4970894;28;20076;-75
2022/06/02 06:46:49;;;;;;;3.35;1.05;;;34.10;71.70;;;34.22;25.47;101632.88;4990364;28;20018;-76
2022/06/02 06:49:24;;;;;;;2.97;1.00;;;33.20;72.00;;;33.23;28.74;101618.50;4996304;28;20033;-75
2022/06/02 06:52:37;;;;;;;3.30;1.30;;;32.60;73.30;;;32.81;28.32;101620.28;4995827;28;20045;-75
2022/06/02 06:55:24;;;;;;;10.50;1.20;;;32.60;72.50;;;32.58;28.37;101616.94;5002386;28;20052;-74
2022/06/02 06:58:06;;;;;;;6.78;1.65;;;32.40;70.80;;;32.27;27.59;101623.50;4993060;28;20041;-74
2022/06/02 07:01:08;;;;;;;4.50;0.90;;;32.30;73.00;;;32.59;28.04;101626.78;4993889;28;20050;-75
2022/06/02 07:04:15;;;;;;;3.97;1.00;;;32.30;72.00;;;32.07;27.95;101626.88;4986534;28;20509;-74
2022/06/02 07:07:39;;;;;;;3.85;0.90;;;31.90;70.80;;;31.06;29.44;101628.34;4993511;28;20394;-74
2022/06/02 07:10:29;;;;;;;4.57;1.17;;;31.20;73.80;;;30.10;31.56;101618.81;4979075;28;20055;-74
2022/06/02 07:13:38;;;;;;;3.20;0.95;;;30.60;75.10;;;30.30;31.26;101611.09;4995113;28;20026;-74
2022/06/02 07:16:38;;;;;;;8.95;1.60;;;29.90;75.50;;;28.82;33.04;101601.53;4990069;28;20042;-74
2022/06/02 07:19:27;;;;;;;3.67;1.15;;;28.90;76.80;;;28.00;34.28;101590.56;4991663;28;20398;-73
2022/06/02 07:22:01;;;;;;;3.80;1.10;;;28.70;79.80;;;28.72;34.88;101584.59;4998356;28;20034;-73
2022/06/02 07:24:50;;;;;;;2.58;1.00;;;28.60;80.90;;;28.40;34.22;101586.25;4996958;28;20402;-73
2022/06/02 07:27:34;;;;;;;2.83;0.98;;;28.80;81.40;;;28.94;33.86;101587.63;4997245;28;20548;-74
2022/06/02 07:30:57;;;;;;;3.72;1.02;;;28.70;78.50;;;27.62;34.00;101586.50;4999752;28;21379;-73
2022/06/02 07:33:50;;;;;;;3.30;1.00;;;28.10;79.70;;;26.53;35.36;101579.66;4982561;28;20045;-74
2022/06/02 07:37:04;;;;;;;3.47;1.20;;;26.90;80.10;;;25.54;37.05;101577.72;4986156;28;20445;-73
2022/06/02 07:39:49;;;;;;;5.95;0.90;;;26.50;83.40;;;26.15;36.72;101572.72;4953687;28;20037;-74
2022/06/02 07:42:53;;;;;;;8.88;1.05;;;26.60;80.10;;;26.66;36.03;101575.75;4990587;28;20115;-74
2022/06/02 07:45:35;;;;;;;4.43;0.90;;;27.30;82.40;;;27.63;34.50;101582.81;4983317;28;20502;-73
2022/06/02 07:48:55;;;;;;;5.45;1.00;;;27.80;78.80;;;28.09;33.70;101593.31;4988978;28;20042;-73
2022/06/02 07:51:56;;;;;;;4.22;0.80;;;28.20;80.20;;;28.77;33.82;101598.50;4964092;28;20030;-74
2022/06/02 07:54:54;;;;;;;7.18;1.10;;;28.60;78.20;;;28.68;33.69;101587.81;4981833;28;20034;-73
2022/06/02 07:57:39;;;;;;;6.63;1.70;;;28.20;77.80;;;26.98;34.44;101594.09;4995047;28;20046;-74
2022/06/02 08:00:23;;;;;;;8.27;1.30;;;27.70;80.80;;;27.34;35.64;101583.16;4997179;28;20058;-73
2022/06/02 08:03:52;;;;;;;3.67;1.23;;;27.70;81.40;;;27.85;35.02;101581.41;4963818;28;20079;-73
2022/06/02 08:06:49;;;;;;;2.60;0.88;;;27.90;78.60;;;28.32;34.51;101591.66;4974418;28;20030;-74
2022/06/02 08:09:34;;;;;;;4.05;1.10;;;27.90;79.30;;;28.08;34.75;101578.94;4988846;28;20482;-74
2022/06/02 08:12:35;;;;;;;2.35;0.95;;;27.90;81.30;;;27.88;34.15;101582.91;4990380;28;20038;-73
2022/06/02 08:16:01;;;;;;;2.30;0.80;;;27.90;80.10;;;27.22;33.35;101584.47;4993291;28;20506;-74
2022/06/02 08:18:48;;;;;;;3.55;1.08;;;27.20;79.30;;;26.46;36.54;101573.19;4980630;28;20038;-74
2022/06/02 08:21:41;;;;;;;5.15;1.10;;;26.60;81.00;;;25.82;37.23;101568.78;4990252;28;20088;-73
2022/06/02 08:24:29;;;;;;;5.60;1.10;;;26.20;81.30;;;25.75;37.89;101564.00;4994902;28;20056;-73
2022/06/02 08:27:43;;;;;;;3.50;1.10;;;25.80;82.70;;;25.55;37.84;101557.88;4987146;28;20362;-73
2022/06/02 08:30:20;;;;;;;7.20;1.20;;;25.20;84.20;;;24.58;40.29;101547.34;4992632;28;20096;-74
2022/06/02 08:33:15;;;;;;;4.25;1.15;;;24.80;85.90;;;24.12;40.44;101552.38;4978503;28;20719;-73
2022/06/02 08:35:57;;;;;;;5.43;1.08;;;24.50;86.80;;;23.73;41.47;101538.81;4999874;28;20108;-74
2022/06/02 08:38:59;;;;;;;19.63;1.52;;;24.00;88.30;;;23.09;43.31;101531.94;4991146;28;20136;-73
2022/06/02 08:42:13;;;;;;;3.85;1.13;;;23.60;89.30;;;22.69;44.48;101527.28;4989208;28;20034;-73
2022/06/02 08:45:18;;;;;;;4.00;1.00;;;23.30;89.40;;;22.70;43.71;101537.06;4995532;28;20473;-77
2022/06/02 08:48:10;;;;;;;2.40;0.88;;;23.30;89.50;;;22.88;43.65;101539.16;4993413;28;20034;-73
2022/06/02 08:51:07;;;;;;;1.48;0.80;;;23.30;89.70;;;22.73;43.33;101536.78;4998057;28;20033;-73
2022/06/02 08:54:19;;;;;;;2.90;0.88;;;23.20;90.40;;;22.44;45.12;101535.72;4995620;28;20056;-73
2022/06/02 08:57:09;;;;;;;2.15;1.00;;;23.00;90.60;;;22.38;44.51;101538.94;4973208;28;20521;-72
2022/06/02 09:00:00;;;;;;;5.90;1.30;;;22.90;90.30;;;22.30;44.95;101531.50;4994672;28;20030;-73
2022/06/02 09:02:55;;;;;;;5.43;1.20;;;22.80;91.70;;;22.32;46.33;101521.50;4992114;28;20066;-73
2022/06/02 09:05:40;;;;;;;8.82;1.20;;;22.80;91.50;;;22.39;45.60;101525.38;4990331;28;20042;-73
2022/06/02 09:08:31;;;;;;;2.42;0.75;;;22.80;91.00;;;22.09;46.26;101523.38;4986744;28;20033;-73
2022/06/02 09:11:40;;;;;;;2.22;1.00;;;22.50;91.40;;;21.51;46.72;101520.94;4991150;28;20521;-74
2022/06/02 09:14:36;;;;;;;1.55;0.70;;;22.10;90.40;;;20.98;46.54;101518.00;4975154;28;20049;-74
2022/06/02 09:17:47;;;;;;;4.13;1.20;;;21.60;91.00;;;20.01;47.76;101517.28;4995695;28;20038;-73
2022/06/02 09:20:46;;;;;;;5.10;1.00;;;21.00;92.40;;;19.56;50.36;101516.97;4974330;28;20033;-73
2022/06/02 09:23:55;;;;;;;4.72;1.20;;;20.50;93.40;;;19.27;52.00;101517.25;4989001;28;20125;-73
2022/06/02 09:27:00;;;;;;;3.15;1.05;;;20.00;93.90;;;18.92;52.27;101522.34;4999819;28;20156;-73
2022/06/02 09:30:03;;;;;;;35.88;5.97;;;19.70;95.10;;;18.54;54.21;101517.81;4970996;28;20105;-73
2022/06/02 09:33:33;;;;;;;3.53;0.77;;;19.40;95.20;;;18.19;54.48;101519.22;4980685;28;20119;-73
2022/06/02 09:36:42;;;;;;;4.43;1.15;;;19.00;95.30;;;17.66;55.31;101531.50;4986696;28;20040;-73
2022/06/02 09:39:25;;;;;;;3.65;1.20;;;18.60;96.20;;;17.43;56.88;101528.50;4986544;28;20056;-73
2022/06/02 09:42:29;;;;;;;5.45;1.20;;;18.50;97.60;;;17.53;58.41;101525.25;4995723;28;20037;-73
2022/06/02 09:45:38;;;;;;;5.78;1.40;;;18.60;97.80;;;18.02;57.25;101512.31;4997334;28;20029;-73
2022/06/02 09:49:04;;;;;;;2.17;1.00;;;19.00;96.80;;;18.74;55.19;101517.28;4985734;28;20179;-73
2022/06/02 09:52:16;;;;;;;3.33;1.10;;;19.40;96.40;;;18.85;54.15;101519.25;4992947;28;20028;-73
2022/06/02 09:55:21;;;;;;;5.70;0.98;;;19.60;96.00;;;18.75;54.03;101527.03;4993274;28;20046;-73
2022/06/02 09:58:05;;;;;;;5.00;0.82;;;19.60;96.00;;;18.69;54.58;101522.09;4997396;28;20419;-73
2022/06/02 10:00:51;;;;;;;7.32;1.13;;;19.50;96.20;;;18.72;55.10;101526.38;4998767;28;21674;-73
2022/06/02 10:03:38;;;;;;;6.78;1.13;;;19.50;96.80;;;18.83;54.67;101515.84;4990038;28;20026;-73
2022/06/02 10:06:34;;;;;;;7.35;1.10;;;19.60;96.60;;;19.01;55.62;101521.75;5000111;28;20031;-73
2022/06/02 10:09:17;;;;;;;5.43;0.90;;;19.80;96.10;;;19.13;53.81;101515.53;4990423;28;20625;-74
2022/06/02 10:15:55;;;;;;;2.67;0.90;;;19.70;96.50;;;19.21;54.82;101515.00;4982000;28;20056;-74
2022/06/02 10:19:17;;;;;;;3.75;0.70;;;19.80;96.80;;;19.52;54.22;101510.13;4976417;28;20037;-74
2022/06/02 10:22:45;;;;;;;6.85;1.00;;;20.10;96.00;;;19.72;52.36;101520.28;4985685;28;20120;-74
2022/06/02 10:26:03;;;;;;;3.53;1.27;;;20.20;96.40;;;19.62;53.34;101527.22;4967207;28;20654;-74
2022/06/02 10:29:29;;;;;;;9.73;1.13;;;20.20;96.20;;;19.60;53.79;101515.78;4993197;28;20049;-75
2022/06/02 10:32:04;;;;;;;5.78;1.42;;;20.30;96.40;;;19.88;53.79;101523.53;4992433;28;20042;-74
2022/06/02 10:35:11;;;;;;;4.47;1.40;;;20.40;97.10;;;20.13;53.72;101516.38;4990983;28;20041;-74
2022/06/02 10:38:24;;;;;;;1.58;0.80;;;20.60;95.60;;;20.11;51.75;101526.34;4984833;28;20053;-74
2022/06/02 10:41:28;;;;;;;1.77;0.98;;;20.60;95.10;;;20.04;51.14;101523.25;4992185;28;20030;-75
2022/06/02 10:44:15;;;;;;;4.82;1.23;;;20.50;95.00;;;19.75;51.77;101520.03;4990364;28;20026;-74
2022/06/02 10:47:34;;;;;;;6.03;1.23;;;20.20;95.30;;;19.10;54.07;101522.91;4992099;28;20493;-74
2022/06/02 10:50:37;;;;;;;3.70;1.00;;;19.80;95.30;;;18.49;54.04;101531.47;4993447;28;20022;-74
2022/06/02 10:53:29;;;;;;;2.90;0.88;;;19.30;96.30;;;18.17;56.45;101530.94;4995193;28;20093;-74
2022/06/02 10:56:31;;;;;;;2.67;1.10;;;19.00;97.40;;;17.87;57.77;101525.81;4993088;28;20044;-74
2022/06/02 10:59:33;;;;;;;6.38;1.05;;;18.70;98.00;;;17.62;58.55;101520.22;4989444;28;20121;-74
2022/06/02 11:02:26;;;;;;;4.55;1.10;;;18.50;98.60;;;17.39;59.55;101524.31;4973786;28;20513;-73
2022/06/02 11:06:07;;;;;;;2.53;0.90;;;18.30;98.70;;;17.02;60.71;101525.75;4994510;28;20030;-73
2022/06/02 11:09:17;;;;;;;4.75;1.23;;;18.00;99.10;;;16.69;61.99;101523.25;4995010;28;20441;-74
2022/06/02 11:12:07;;;;;;;16.55;1.73;;;17.70;99.90;;;16.37;65.46;101529.56;4991728;28;20034;-74
2022/06/02 11:15:10;;;;;;;11.02;1.40;;;17.40;99.90;;;16.09;67.86;101534.72;4991384;28;20136;-73
2022/06/02 11:18:20;;;;;;;9.00;1.77;;;17.10;99.90;;;15.91;71.30;101528.66;4987485;28;20056;-73
2022/06/02 11:21:19;;;;;;;4.35;1.73;;;17.00;99.90;;;16.06;71.56;101525.13;4984315;28;20038;-73
2022/06/02 11:23:57;;;;;;;7.90;1.80;;;17.10;99.90;;;16.59;73.03;101525.63;4986754;28;20560;-74
2022/06/02 11:27:27;;;;;;;6.30;1.60;;;17.50;99.90;;;17.39;72.57;101523.47;4981937;28;20037;-73
2022/06/02 11:30:23;;;;;;;5.82;1.45;;;18.10;99.90;;;18.01;68.63;101523.06;4917119;28;20047;-73
2022/06/02 11:33:29;;;;;;;5.95;1.58;;;18.50;99.90;;;18.53;68.26;101519.63;4978571;28;20041;-73
2022/06/02 11:36:25;;;;;;;7.32;1.50;;;19.00;99.90;;;18.88;63.77;101526.19;4994877;28;20042;-73
2022/06/02 11:39:21;;;;;;;7.18;1.45;;;19.30;99.90;;;19.18;60.51;101536.56;4994303;28;20044;-72
2022/06/02 11:42:09;;;;;;;3.80;1.35;;;19.60;99.90;;;19.38;59.75;101536.00;4992626;28;20546;-73
2022/06/02 11:45:06;;;;;;;6.35;1.67;;;19.80;99.90;;;19.36;58.74;101542.44;4988313;28;20383;-73
2022/06/02 11:47:53;;;;;;;6.23;1.57;;;19.80;99.90;;;19.07;58.34;101540.00;4991594;28;20022;-72
2022/06/02 11:50:56;;;;;;;;;;;19.90;99.90;;;18.96;59.24;101535.41;4991326;28;20815;-73
2022/06/02 11:54:17;;;;;;;4.10;1.42;;;19.70;99.90;;;19.07;59.77;101537.34;4990503;28;19976;-73
2022/06/02 11:57:21;;;;;;;4.47;1.27;;;19.80;99.90;;;19.15;59.29;101544.78;4993337;28;20038;-73
2022/06/02 12:00:14;;;;;;;4.15;1.52;;;19.80;99.90;;;19.20;57.92;101537.28;4980425;28;20038;-73
2022/06/02 12:03:46;;;;;;;4.70;1.38;;;19.90;99.90;;;19.31;58.83;101549.91;4980410;28;20384;-74
2022/06/02 12:07:08;;;;;;;5.20;1.27;;;19.90;99.90;;;19.38;56.96;101556.53;4991887;28;20033;-73
2022/06/02 12:10:01;;;;;;;5.93;1.40;;;20.10;99.20;;;19.43;57.12;101560.56;4967953;28;20730;-73
2022/06/02 12:13:13;;;;;;;3.67;1.20;;;20.00;98.90;;;19.35;56.04;101557.59;4987671;28;20050;-73
2022/06/02 12:16:28;;;;;;;5.10;1.27;;;20.00;99.20;;;19.34;56.84;101555.88;4992084;28;20064;-73
2022/06/02 12:19:37;;;;;;;5.38;1.30;;;19.90;99.10;;;19.36;56.26;101551.28;4990377;28;20029;-72
2022/06/02 12:22:43;;;;;;;5.20;1.40;;;20.00;99.30;;;19.53;57.04;101559.94;4994028;28;20390;-72
2022/06/02 12:25:42;;;;;;;5.45;1.30;;;20.20;99.40;;;19.87;56.13;101561.91;4987699;28;20049;-73
2022/06/02 12:28:24;;;;;;;4.43;1.33;;;20.50;99.60;;;20.28;56.13;101570.53;4991187;28;20018;-72
2022/06/02 12:31:45;;;;;;;3.72;1.33;;;20.90;99.90;;;20.72;54.95;101557.50;4985830;28;20037;-73